createdAt,value
2023-12-28T00:00:47.704Z,63.40
2023-12-28T00:01:47.740Z,63.51
2023-12-28T00:02:47.658Z,63.72
2023-12-28T00:03:47.799Z,63.61
2023-12-28T00:04:47.741Z,63.65
2023-12-28T00:05:47.864Z,63.31
2023-12-28T00:06:47.855Z,63.28
2023-12-28T00:07:47.896Z,63.93
2023-12-28T00:08:56.650Z,64.54
2023-12-28T00:09:48.973Z,64.48
2023-12-28T00:10:47.942Z,64.26
2023-12-28T00:11:47.936Z,64.15
2023-12-28T00:12:48.007Z,64.30
2023-12-28T00:13:48.457Z,64.36
2023-12-28T00:14:47.933Z,64.19
2023-12-28T00:15:48.028Z,64.25
2023-12-28T00:16:47.968Z,64.26
2023-12-28T00:17:48.019Z,64.03
2023-12-28T00:18:48.017Z,64.28
2023-12-28T00:19:48.044Z,64.29
2023-12-28T00:20:47.962Z,64.28
2023-12-28T00:21:48.065Z,64.18
2023-12-28T00:22:47.965Z,64.25
2023-12-28T00:23:47.970Z,64.35
2023-12-28T00:24:48.024Z,64.48
2023-12-28T00:25:48.068Z,64.50
2023-12-28T00:26:48.097Z,64.25
2023-12-28T00:27:48.283Z,64.03
2023-12-28T00:28:48.226Z,63.95
2023-12-28T00:29:48.243Z,64.12
2023-12-28T00:30:48.386Z,63.71
2023-12-28T00:31:48.323Z,63.33
2023-12-28T00:32:48.427Z,63.59
2023-12-28T00:33:48.565Z,63.82
2023-12-28T00:34:48.504Z,63.62
2023-12-28T00:35:48.443Z,63.79
2023-12-28T00:36:48.554Z,64.02
2023-12-28T00:37:48.499Z,63.83
2023-12-28T00:38:48.510Z,63.88
2023-12-28T00:39:48.641Z,63.63
2023-12-28T00:40:48.623Z,63.56
2023-12-28T00:41:48.681Z,63.56
2023-12-28T00:42:48.738Z,63.91
2023-12-28T00:43:48.730Z,63.81
2023-12-28T00:44:48.763Z,63.80
2023-12-28T00:45:48.873Z,63.75
2023-12-28T00:46:48.793Z,63.76
2023-12-28T00:47:48.888Z,63.43
2023-12-28T00:48:49.037Z,63.27
2023-12-28T00:49:49.048Z,63.60
2023-12-28T00:50:48.970Z,63.89
2023-12-28T00:51:49.074Z,64.04
2023-12-28T00:52:49.035Z,63.83
2023-12-28T00:53:49.087Z,64.01
2023-12-28T00:54:49.224Z,63.92
2023-12-28T00:55:49.198Z,63.78
2023-12-28T00:56:49.271Z,63.80
2023-12-28T00:57:49.336Z,63.99
2023-12-28T00:58:49.337Z,63.98
2023-12-28T00:59:49.359Z,63.30
2023-12-28T01:00:49.494Z,63.43
2023-12-28T01:01:49.472Z,63.87
2023-12-28T01:02:49.506Z,64.27
2023-12-28T01:03:49.636Z,64.27
2023-12-28T01:04:49.665Z,64.46
2023-12-28T01:05:49.676Z,64.08
2023-12-28T01:06:49.733Z,64.02
2023-12-28T01:07:49.756Z,64.12
2023-12-28T01:08:49.817Z,63.99
2023-12-28T01:09:49.951Z,64.23
2023-12-28T01:10:49.896Z,64.17
2023-12-28T01:11:49.936Z,64.03
2023-12-28T01:12:50.128Z,64.23
2023-12-28T01:13:50.030Z,64.30
2023-12-28T01:14:50.095Z,64.38
2023-12-28T01:15:50.196Z,64.16
2023-12-28T01:16:50.149Z,64.04
2023-12-28T01:17:50.281Z,64.23
2023-12-28T01:18:50.379Z,64.37
2023-12-28T01:19:50.445Z,64.38
2023-12-28T01:20:50.285Z,64.72
2023-12-28T01:21:50.359Z,64.84
2023-12-28T01:22:50.362Z,64.99
2023-12-28T01:23:50.398Z,64.90
2023-12-28T01:24:50.439Z,64.79
2023-12-28T01:25:50.409Z,64.97
2023-12-28T01:26:50.425Z,65.06
2023-12-28T01:27:50.597Z,65.20
2023-12-28T01:28:50.520Z,65.42
2023-12-28T01:29:50.601Z,65.44
2023-12-28T01:30:50.720Z,65.29
2023-12-28T01:31:50.707Z,65.94
2023-12-28T01:32:50.799Z,65.93
2023-12-28T01:33:50.998Z,66.34
2023-12-28T01:34:51.142Z,66.45
2023-12-28T01:35:50.951Z,66.33
2023-12-28T01:36:51.058Z,66.24
2023-12-28T01:37:51.065Z,65.98
2023-12-28T01:38:51.151Z,65.93
2023-12-28T01:39:51.257Z,66.10
2023-12-28T01:40:51.890Z,65.98
2023-12-28T01:41:51.292Z,66.04
2023-12-28T01:42:51.411Z,65.94
2023-12-28T01:43:51.410Z,65.97
2023-12-28T01:44:51.484Z,66.00
2023-12-28T01:45:51.594Z,65.78
2023-12-28T01:46:51.566Z,65.55
2023-12-28T01:47:51.733Z,65.54
2023-12-28T01:48:52.261Z,65.69
2023-12-28T01:49:51.841Z,66.40
2023-12-28T01:50:51.750Z,66.50
2023-12-28T01:51:51.870Z,66.71
2023-12-28T01:52:51.786Z,66.86
2023-12-28T01:53:51.870Z,66.80
2023-12-28T01:54:51.996Z,66.70
2023-12-28T01:55:51.953Z,66.63
2023-12-28T01:56:52.021Z,66.38
2023-12-28T01:57:52.183Z,66.18
2023-12-28T01:58:52.111Z,65.82
2023-12-28T01:59:52.141Z,65.70
2023-12-28T02:00:52.382Z,65.73
2023-12-28T02:01:52.270Z,66.10
2023-12-28T02:02:52.325Z,66.52
2023-12-28T02:03:52.491Z,66.65
2023-12-28T02:04:52.422Z,66.67
2023-12-28T02:05:52.500Z,66.64
2023-12-28T02:06:52.575Z,66.47
2023-12-28T02:07:52.541Z,66.15
2023-12-28T02:08:52.546Z,66.14
2023-12-28T02:09:52.651Z,66.13
2023-12-28T02:10:52.612Z,66.30
2023-12-28T02:11:52.685Z,66.21
2023-12-28T02:12:52.829Z,66.09
2023-12-28T02:13:52.807Z,66.08
2023-12-28T02:14:52.813Z,66.24
2023-12-28T02:15:52.964Z,66.08
2023-12-28T02:16:52.954Z,65.90
2023-12-28T02:17:53.017Z,65.80
2023-12-28T02:18:53.146Z,65.65
2023-12-28T02:19:53.088Z,65.55
2023-12-28T02:20:53.161Z,65.51
2023-12-28T02:21:53.288Z,65.62
2023-12-28T02:22:53.192Z,65.51
2023-12-28T02:23:53.278Z,65.34
2023-12-28T02:24:53.368Z,65.39
2023-12-28T02:25:53.336Z,65.75
2023-12-28T02:26:53.360Z,65.48
2023-12-28T02:27:53.530Z,65.80
2023-12-28T02:28:53.522Z,66.14
2023-12-28T02:29:53.547Z,66.17
2023-12-28T02:30:53.657Z,65.85
2023-12-28T02:31:53.641Z,65.79
2023-12-28T02:32:53.767Z,65.48
2023-12-28T02:33:53.821Z,65.40
2023-12-28T02:34:53.793Z,65.56
2023-12-28T02:35:53.884Z,65.90
2023-12-28T02:36:53.932Z,66.10
2023-12-28T02:37:53.984Z,65.91
2023-12-28T02:38:54.022Z,65.90
2023-12-28T02:39:54.156Z,66.35
2023-12-28T02:40:54.130Z,66.31
2023-12-28T02:41:54.108Z,66.01
2023-12-28T02:42:54.257Z,66.00
2023-12-28T02:43:54.220Z,65.86
2023-12-28T02:44:54.220Z,66.12
2023-12-28T02:45:54.368Z,66.34
2023-12-28T02:46:54.304Z,66.02
2023-12-28T02:47:54.407Z,65.84
2023-12-28T02:48:54.475Z,65.99
2023-12-28T02:49:54.523Z,66.10
2023-12-28T02:50:54.454Z,65.98
2023-12-28T02:51:54.572Z,66.21
2023-12-28T02:52:54.515Z,66.10
2023-12-28T02:53:54.588Z,66.35
2023-12-28T02:54:54.657Z,66.59
2023-12-28T02:55:54.831Z,66.44
2023-12-28T02:56:54.732Z,65.74
2023-12-28T02:57:54.846Z,65.92
2023-12-28T02:58:54.815Z,66.13
2023-12-28T02:59:54.824Z,66.18
2023-12-28T03:00:54.991Z,66.27
2023-12-28T03:01:54.931Z,66.17
2023-12-28T03:02:54.988Z,66.13
2023-12-28T03:03:55.075Z,66.30
2023-12-28T03:04:55.050Z,66.35
2023-12-28T03:05:55.068Z,66.30
2023-12-28T03:06:55.151Z,66.54
2023-12-28T03:07:55.080Z,66.54
2023-12-28T03:08:55.123Z,66.58
2023-12-28T03:09:55.161Z,66.58
2023-12-28T03:10:55.195Z,66.53
2023-12-28T03:11:55.208Z,66.33
2023-12-28T03:12:55.274Z,66.15
2023-12-28T03:13:55.321Z,66.19
2023-12-28T03:14:55.370Z,66.36
2023-12-28T03:15:55.464Z,66.42
2023-12-28T03:16:55.459Z,66.39
2023-12-28T03:17:55.720Z,66.55
2023-12-28T03:18:55.632Z,66.89
2023-12-28T03:19:55.726Z,67.11
2023-12-28T03:20:55.609Z,67.41
2023-12-28T03:21:55.696Z,67.53
2023-12-28T03:22:55.642Z,67.56
2023-12-28T03:23:55.678Z,67.28
2023-12-28T03:24:55.874Z,66.93
2023-12-28T03:25:55.758Z,66.80
2023-12-28T03:26:55.799Z,66.49
2023-12-28T03:27:55.983Z,66.38
2023-12-28T03:28:55.893Z,66.51
2023-12-28T03:29:55.955Z,66.90
2023-12-28T03:30:56.057Z,66.91
2023-12-28T03:31:56.027Z,66.80
2023-12-28T03:32:56.085Z,66.58
2023-12-28T03:33:56.186Z,66.30
2023-12-28T03:34:56.102Z,66.33
2023-12-28T03:35:56.135Z,66.36
2023-12-28T03:36:56.271Z,66.35
2023-12-28T03:37:56.531Z,66.11
2023-12-28T03:38:56.275Z,66.14
2023-12-28T03:39:56.326Z,66.30
2023-12-28T03:40:56.295Z,66.49
2023-12-28T03:41:56.407Z,66.30
2023-12-28T03:42:56.512Z,66.29
2023-12-28T03:43:56.480Z,66.04
2023-12-28T03:44:56.759Z,66.17
2023-12-28T03:45:56.510Z,66.19
2023-12-28T03:46:56.594Z,66.22
2023-12-28T03:47:57.038Z,66.07
2023-12-28T03:48:56.872Z,66.07
2023-12-28T03:49:56.736Z,65.88
2023-12-28T03:50:56.672Z,65.56
2023-12-28T03:51:56.903Z,65.53
2023-12-28T03:52:56.752Z,65.54
2023-12-28T03:53:56.853Z,65.56
2023-12-28T03:54:56.943Z,65.53
2023-12-28T03:55:56.903Z,65.30
2023-12-28T03:56:56.949Z,65.00
2023-12-28T03:57:57.233Z,65.02
2023-12-28T03:58:57.066Z,65.48
2023-12-28T03:59:57.080Z,65.59
2023-12-28T04:00:57.156Z,65.64
2023-12-28T04:01:57.134Z,65.94
2023-12-28T04:02:57.188Z,66.12
2023-12-28T04:03:57.324Z,66.13
2023-12-28T04:04:57.342Z,66.08
2023-12-28T04:05:57.329Z,66.12
2023-12-28T04:06:57.364Z,66.04
2023-12-28T04:07:57.543Z,66.19
2023-12-28T04:08:57.456Z,66.13
2023-12-28T04:09:57.606Z,66.00
2023-12-28T04:10:57.608Z,65.68
2023-12-28T04:11:57.625Z,65.63
2023-12-28T04:12:57.675Z,65.28
2023-12-28T04:13:57.731Z,65.11
2023-12-28T04:14:57.799Z,65.39
2023-12-28T04:15:57.841Z,65.49
2023-12-28T04:16:57.884Z,65.15
2023-12-28T04:17:58.227Z,64.96
2023-12-28T04:18:58.023Z,64.94
2023-12-28T04:19:58.032Z,64.92
2023-12-28T04:20:57.984Z,65.00
2023-12-28T04:21:58.037Z,65.18
2023-12-28T04:22:58.061Z,65.25
2023-12-28T04:23:58.092Z,65.19
2023-12-28T04:24:58.214Z,65.26
2023-12-28T04:25:58.224Z,65.28
2023-12-28T04:26:58.262Z,65.57
2023-12-28T04:27:58.545Z,65.86
2023-12-28T04:28:58.332Z,65.82
2023-12-28T04:29:58.394Z,66.08
2023-12-28T04:30:58.492Z,66.37
2023-12-28T04:31:58.401Z,66.41
2023-12-28T04:32:58.480Z,66.22
2023-12-28T04:33:58.628Z,65.90
2023-12-28T04:34:58.613Z,65.54
2023-12-28T04:35:58.616Z,65.45
2023-12-28T04:36:58.768Z,65.36
2023-12-28T04:37:58.996Z,65.40
2023-12-28T04:38:58.771Z,65.08
2023-12-28T04:39:58.839Z,65.29
2023-12-28T04:40:58.924Z,65.29
2023-12-28T04:41:58.930Z,65.54
2023-12-28T04:42:58.998Z,65.70
2023-12-28T04:43:58.982Z,65.73
2023-12-28T04:44:59.006Z,65.57
2023-12-28T04:45:59.096Z,65.46
2023-12-28T04:46:59.067Z,65.30
2023-12-28T04:47:59.501Z,65.09
2023-12-28T04:48:59.276Z,64.82
2023-12-28T04:49:59.229Z,65.02
2023-12-28T04:50:59.256Z,65.76
2023-12-28T04:51:59.374Z,66.33
2023-12-28T04:52:59.351Z,66.89
2023-12-28T04:53:59.400Z,67.39
2023-12-28T04:54:59.467Z,68.19
2023-12-28T04:55:59.519Z,68.52
2023-12-28T04:57:07.436Z,69.46
2023-12-28T04:58:07.491Z,69.94
2023-12-28T04:59:07.469Z,70.22
2023-12-28T05:00:07.418Z,70.31
2023-12-28T05:01:07.548Z,70.49
2023-12-28T05:02:07.438Z,70.64
2023-12-28T05:03:07.572Z,70.62
2023-12-28T05:04:07.555Z,70.46
2023-12-28T05:05:07.445Z,70.25
2023-12-28T05:06:07.526Z,69.88
2023-12-28T05:07:07.483Z,70.09
2023-12-28T05:08:07.478Z,70.52
2023-12-28T05:09:07.478Z,70.81
2023-12-28T05:10:07.482Z,71.12
2023-12-28T05:11:07.499Z,71.11
2023-12-28T05:12:07.466Z,71.17
2023-12-28T05:13:07.638Z,70.64
2023-12-28T05:14:07.477Z,70.37
2023-12-28T05:15:07.484Z,70.31
2023-12-28T05:16:07.485Z,69.78
2023-12-28T05:17:07.494Z,69.57
2023-12-28T05:18:07.678Z,69.50
2023-12-28T05:19:07.624Z,69.33
2023-12-28T05:20:07.563Z,69.78
2023-12-28T05:21:07.516Z,69.66
2023-12-28T05:22:07.491Z,69.63
2023-12-28T05:23:07.488Z,69.74
2023-12-28T05:24:07.536Z,69.48
2023-12-28T05:25:07.523Z,69.27
2023-12-28T05:26:07.525Z,68.82
2023-12-28T05:27:07.502Z,68.35
2023-12-28T05:28:07.646Z,67.98
2023-12-28T05:29:07.538Z,68.02
2023-12-28T05:30:07.582Z,67.85
2023-12-28T05:31:07.634Z,67.64
2023-12-28T05:32:07.543Z,67.48
2023-12-28T05:33:07.580Z,67.33
2023-12-28T05:34:07.670Z,67.13
2023-12-28T05:35:07.565Z,67.10
2023-12-28T05:36:09.041Z,67.15
2023-12-28T05:37:07.532Z,67.31
2023-12-28T05:38:07.547Z,67.29
2023-12-28T05:39:07.549Z,67.34
2023-12-28T05:40:07.563Z,67.85
2023-12-28T05:41:07.572Z,68.74
2023-12-28T05:42:07.536Z,69.49
2023-12-28T05:43:07.580Z,69.86
2023-12-28T05:44:07.556Z,70.21
2023-12-28T05:45:07.573Z,70.46
2023-12-28T05:46:07.568Z,70.47
2023-12-28T05:47:07.559Z,70.34
2023-12-28T05:48:07.683Z,69.91
2023-12-28T05:49:07.801Z,69.74
2023-12-28T05:50:07.680Z,69.51
2023-12-28T05:51:07.588Z,69.36
2023-12-28T05:52:07.610Z,69.11
2023-12-28T05:53:07.584Z,68.95
2023-12-28T05:54:09.426Z,69.06
2023-12-28T05:55:07.598Z,69.49
2023-12-28T05:56:07.623Z,69.75
2023-12-28T05:57:07.624Z,70.09
2023-12-28T05:58:07.605Z,70.23
2023-12-28T05:59:07.580Z,70.72
2023-12-28T06:00:07.617Z,70.61
2023-12-28T06:01:07.667Z,70.78
2023-12-28T06:02:07.588Z,70.82
2023-12-28T06:03:07.590Z,71.25
2023-12-28T06:04:07.675Z,71.65
2023-12-28T06:05:07.709Z,71.93
2023-12-28T06:06:07.596Z,71.91
2023-12-28T06:07:07.674Z,72.03
2023-12-28T06:08:07.732Z,72.06
2023-12-28T06:09:07.798Z,72.08
2023-12-28T06:10:07.851Z,71.92
2023-12-28T06:11:07.894Z,71.64
2023-12-28T06:12:07.976Z,71.26
2023-12-28T06:13:07.992Z,71.04
2023-12-28T06:14:08.059Z,70.79
2023-12-28T06:15:08.121Z,70.45
2023-12-28T06:16:08.189Z,70.21
2023-12-28T06:17:08.138Z,70.02
2023-12-28T06:18:08.196Z,69.84
2023-12-28T06:19:08.321Z,69.56
2023-12-28T06:20:08.370Z,69.45
2023-12-28T06:21:08.305Z,69.50
2023-12-28T06:22:08.333Z,69.22
2023-12-28T06:23:08.380Z,69.12
2023-12-28T06:24:08.447Z,68.97
2023-12-28T06:25:08.494Z,68.68
2023-12-28T06:26:08.591Z,68.81
2023-12-28T06:27:08.666Z,68.78
2023-12-28T06:28:08.672Z,68.66
2023-12-28T06:29:08.673Z,68.37
2023-12-28T06:30:08.793Z,68.06
2023-12-28T06:31:08.824Z,67.96
2023-12-28T06:32:08.802Z,68.06
2023-12-28T06:33:08.938Z,67.87
2023-12-28T06:34:09.243Z,67.85
2023-12-28T06:35:08.881Z,67.85
2023-12-28T06:36:08.922Z,67.81
2023-12-28T06:37:08.972Z,67.55
2023-12-28T06:38:09.030Z,67.68
2023-12-28T06:39:09.091Z,67.84
2023-12-28T06:40:09.128Z,67.98
2023-12-28T06:41:09.189Z,67.47
2023-12-28T06:42:09.236Z,67.52
2023-12-28T06:43:09.280Z,67.75
2023-12-28T06:44:09.323Z,68.13
2023-12-28T06:45:09.396Z,68.21
2023-12-28T06:46:09.370Z,68.21
2023-12-28T06:47:09.472Z,68.31
2023-12-28T06:48:09.549Z,68.40
2023-12-28T06:49:11.584Z,68.05
2023-12-28T06:50:09.563Z,68.19
2023-12-28T06:51:09.574Z,68.23
2023-12-28T06:52:09.639Z,68.25
2023-12-28T06:53:09.655Z,68.09
2023-12-28T06:54:09.655Z,67.31
2023-12-28T06:55:09.713Z,67.53
2023-12-28T06:56:09.775Z,67.73
2023-12-28T06:57:09.828Z,67.98
2023-12-28T06:58:09.943Z,67.92
2023-12-28T06:59:09.938Z,67.91
2023-12-28T07:00:10.026Z,68.15
2023-12-28T07:01:10.151Z,68.37
2023-12-28T07:02:10.118Z,68.35
2023-12-28T07:03:10.140Z,68.10
2023-12-28T07:04:10.148Z,67.65
2023-12-28T07:05:10.217Z,67.35
2023-12-28T07:06:10.390Z,67.20
2023-12-28T07:07:10.249Z,67.01
2023-12-28T07:08:10.297Z,66.58
2023-12-28T07:09:10.353Z,66.52
2023-12-28T07:10:10.408Z,66.49
2023-12-28T07:11:10.437Z,66.44
2023-12-28T07:12:10.440Z,66.10
2023-12-28T07:13:10.552Z,65.80
2023-12-28T07:14:10.503Z,66.46
2023-12-28T07:15:10.548Z,67.28
2023-12-28T07:16:10.663Z,67.92
2023-12-28T07:17:10.670Z,68.64
2023-12-28T07:18:10.825Z,69.03
2023-12-28T07:19:10.847Z,69.07
2023-12-28T07:20:10.797Z,69.19
2023-12-28T07:21:10.998Z,69.65
2023-12-28T07:22:10.832Z,69.69
2023-12-28T07:23:10.836Z,69.76
2023-12-28T07:24:10.920Z,69.67
2023-12-28T07:25:10.927Z,69.83
2023-12-28T07:26:10.945Z,69.65
2023-12-28T07:27:11.008Z,69.83
2023-12-28T07:28:11.046Z,69.94
2023-12-28T07:29:11.108Z,70.26
2023-12-28T07:30:11.137Z,70.61
2023-12-28T07:31:11.218Z,71.04
2023-12-28T07:32:11.209Z,71.36
2023-12-28T07:33:11.376Z,71.65
2023-12-28T07:34:11.328Z,71.56
2023-12-28T07:35:11.328Z,71.28
2023-12-28T07:36:11.327Z,71.00
2023-12-28T07:37:11.369Z,70.62
2023-12-28T07:38:11.392Z,70.53
2023-12-28T07:39:11.397Z,70.27
2023-12-28T07:40:11.455Z,70.01
2023-12-28T07:41:11.470Z,69.64
2023-12-28T07:42:11.508Z,69.57
2023-12-28T07:43:11.565Z,69.19
2023-12-28T07:44:11.590Z,68.99
2023-12-28T07:45:11.659Z,68.75
2023-12-28T07:46:11.692Z,68.58
2023-12-28T07:47:11.738Z,68.35
2023-12-28T07:48:11.923Z,68.17
2023-12-28T07:49:11.888Z,67.85
2023-12-28T07:50:11.804Z,67.78
2023-12-28T07:51:11.871Z,67.61
2023-12-28T07:52:11.883Z,67.94
2023-12-28T07:53:11.918Z,68.13
2023-12-28T07:54:11.969Z,68.09
2023-12-28T07:55:12.016Z,68.07
2023-12-28T07:56:12.014Z,67.97
2023-12-28T07:57:12.068Z,67.70
2023-12-28T07:58:12.128Z,67.07
2023-12-28T07:59:12.101Z,66.96
2023-12-28T08:00:12.248Z,66.88
2023-12-28T08:01:12.371Z,66.72
2023-12-28T08:02:12.249Z,66.45
2023-12-28T08:03:12.304Z,66.50
2023-12-28T08:04:12.496Z,66.46
2023-12-28T08:05:12.394Z,66.32
2023-12-28T08:06:12.516Z,66.14
2023-12-28T08:07:12.505Z,65.80
2023-12-28T08:08:12.509Z,65.75
2023-12-28T08:09:12.505Z,65.78
2023-12-28T08:10:12.559Z,65.86
2023-12-28T08:11:12.618Z,66.10
2023-12-28T08:12:12.572Z,65.81
2023-12-28T08:13:12.639Z,65.64
2023-12-28T08:14:12.643Z,65.30
2023-12-28T08:15:12.685Z,65.16
2023-12-28T08:16:12.726Z,64.91
2023-12-28T08:17:12.750Z,65.31
2023-12-28T08:18:12.825Z,65.49
2023-12-28T08:19:12.912Z,65.30
2023-12-28T08:20:12.834Z,65.41
2023-12-28T08:21:12.829Z,65.28
2023-12-28T08:22:12.906Z,65.16
2023-12-28T08:23:17.801Z,65.04
2023-12-28T08:24:13.939Z,65.22
2023-12-28T08:25:12.920Z,65.22
2023-12-28T08:26:12.907Z,65.32
2023-12-28T08:27:12.922Z,65.11
2023-12-28T08:28:12.913Z,65.10
2023-12-28T08:29:12.947Z,65.12
2023-12-28T08:30:12.966Z,64.84
2023-12-28T08:31:12.954Z,64.75
2023-12-28T08:32:13.076Z,64.44
2023-12-28T08:33:13.052Z,64.31
2023-12-28T08:34:13.025Z,63.98
2023-12-28T08:35:12.936Z,63.89
2023-12-28T08:36:12.938Z,64.03
2023-12-28T08:37:12.979Z,63.92
2023-12-28T08:38:13.117Z,63.81
2023-12-28T08:39:13.055Z,63.74
2023-12-28T08:40:13.104Z,63.50
2023-12-28T08:41:13.128Z,63.39
2023-12-28T08:42:13.293Z,63.59
2023-12-28T08:43:13.235Z,63.33
2023-12-28T08:44:13.391Z,63.06
2023-12-28T08:45:13.299Z,63.16
2023-12-28T08:46:13.370Z,62.96
2023-12-28T08:47:13.345Z,62.92
2023-12-28T08:48:13.578Z,63.24
2023-12-28T08:49:13.606Z,63.63
2023-12-28T08:50:13.605Z,64.26
2023-12-28T08:51:13.526Z,64.83
2023-12-28T08:52:13.649Z,64.90
2023-12-28T08:53:13.647Z,64.75
2023-12-28T08:54:13.657Z,64.31
2023-12-28T08:55:13.718Z,63.96
2023-12-28T08:56:13.854Z,63.32
2023-12-28T08:57:13.823Z,61.14
2023-12-28T08:58:13.889Z,56.95
2023-12-28T08:59:13.869Z,51.43
2023-12-28T09:00:13.848Z,45.36
2023-12-28T09:01:14.020Z,39.45
2023-12-28T09:02:13.951Z,35.04
2023-12-28T09:03:14.057Z,31.45
2023-12-28T09:04:14.076Z,28.55
2023-12-28T09:05:14.110Z,27.26
2023-12-28T09:06:14.219Z,25.83
2023-12-28T09:07:14.230Z,24.46
2023-12-28T09:08:14.195Z,23.59
2023-12-28T09:09:14.270Z,22.09
2023-12-28T09:10:14.275Z,21.28
2023-12-28T09:11:14.298Z,21.67
2023-12-28T09:12:14.382Z,21.78
2023-12-28T09:13:14.384Z,21.21
2023-12-28T09:14:14.457Z,19.59
2023-12-28T09:15:14.509Z,17.87
2023-12-28T09:16:14.636Z,17.68
2023-12-28T09:17:14.557Z,17.85
2023-12-28T09:18:14.702Z,17.63
2023-12-28T09:19:14.753Z,18.25
2023-12-28T09:20:14.706Z,17.75
2023-12-28T09:21:14.786Z,18.36
2023-12-28T09:22:14.811Z,20.05
2023-12-28T09:23:14.817Z,21.55
2023-12-28T09:24:14.863Z,21.60
2023-12-28T09:25:14.860Z,21.94
2023-12-28T09:26:14.903Z,23.37
2023-12-28T09:27:14.925Z,22.57
2023-12-28T09:28:14.935Z,20.12
2023-12-28T09:29:15.022Z,18.29
2023-12-28T09:30:15.084Z,16.89
2023-12-28T09:31:15.290Z,15.99
2023-12-28T09:32:15.105Z,14.97
2023-12-28T09:33:15.203Z,14.33
2023-12-28T09:34:15.224Z,14.58
2023-12-28T09:35:15.207Z,13.74
2023-12-28T09:36:15.228Z,13.64
2023-12-28T09:37:15.260Z,13.82
2023-12-28T09:38:15.346Z,13.51
2023-12-28T09:39:15.348Z,13.39
2023-12-28T09:40:15.396Z,13.35
2023-12-28T09:41:15.533Z,13.41
2023-12-28T09:42:15.460Z,13.94
2023-12-28T09:43:15.506Z,14.04
2023-12-28T09:44:15.551Z,15.20
2023-12-28T09:45:15.577Z,16.38
2023-12-28T09:46:15.625Z,17.26
2023-12-28T09:47:15.643Z,18.13
2023-12-28T09:48:15.813Z,18.72
2023-12-28T09:49:15.777Z,18.57
2023-12-28T09:50:15.768Z,18.26
2023-12-28T09:51:17.495Z,17.68
2023-12-28T09:52:15.838Z,16.68
2023-12-28T09:53:15.791Z,16.22
2023-12-28T09:54:15.842Z,15.71
2023-12-28T09:55:15.857Z,15.41
2023-12-28T09:56:15.865Z,14.59
2023-12-28T09:57:15.835Z,15.47
2023-12-28T09:58:15.890Z,16.15
2023-12-28T09:59:15.822Z,16.78
2023-12-28T10:00:15.840Z,17.70
2023-12-28T10:01:16.006Z,17.69
2023-12-28T10:02:15.869Z,18.10
2023-12-28T10:03:15.867Z,18.20
2023-12-28T10:04:15.857Z,18.60
2023-12-28T10:05:15.833Z,18.78
2023-12-28T10:06:15.917Z,18.47
2023-12-28T10:07:15.820Z,17.89
2023-12-28T10:08:15.827Z,17.74
2023-12-28T10:09:15.831Z,17.91
2023-12-28T10:10:15.842Z,18.24
2023-12-28T10:11:15.853Z,17.49
2023-12-28T10:12:15.864Z,17.70
2023-12-28T10:13:16.170Z,16.93
2023-12-28T10:14:16.654Z,16.36
2023-12-28T10:15:15.876Z,16.66
2023-12-28T10:16:15.875Z,15.98
2023-12-28T10:17:15.872Z,15.65
2023-12-28T10:18:16.000Z,15.62
2023-12-28T10:19:15.974Z,15.94
2023-12-28T10:20:15.880Z,16.37
2023-12-28T10:21:15.902Z,16.52
2023-12-28T10:22:15.888Z,18.03
2023-12-28T10:23:15.879Z,19.63
2023-12-28T10:24:15.864Z,20.68
2023-12-28T10:25:15.894Z,20.75
2023-12-28T10:26:15.865Z,20.22
2023-12-28T10:27:15.893Z,20.29
2023-12-28T10:28:15.902Z,20.50
2023-12-28T10:29:15.917Z,19.48
2023-12-28T10:30:15.910Z,19.14
2023-12-28T10:31:16.123Z,18.19
2023-12-28T10:32:15.870Z,18.14
2023-12-28T10:33:16.004Z,18.67
2023-12-28T10:35:15.967Z,18.43
2023-12-28T10:36:15.929Z,18.97
2023-12-28T10:37:15.896Z,19.02
2023-12-28T10:38:15.910Z,19.95
2023-12-28T10:39:15.893Z,20.31
2023-12-28T10:40:15.902Z,20.33
2023-12-28T10:41:15.924Z,21.24
2023-12-28T10:42:15.933Z,23.52
2023-12-28T10:43:15.957Z,24.64
2023-12-28T10:44:15.913Z,25.70
2023-12-28T10:45:15.904Z,25.31
2023-12-28T10:46:15.916Z,25.50
2023-12-28T10:47:15.930Z,25.10
2023-12-28T10:48:16.045Z,24.96
2023-12-28T10:49:16.144Z,24.43
2023-12-28T10:50:16.019Z,23.85
2023-12-28T10:51:15.952Z,24.23
2023-12-28T10:52:15.967Z,24.71
2023-12-28T10:53:15.926Z,25.00
2023-12-28T10:54:15.915Z,25.57
2023-12-28T10:55:18.461Z,24.00
2023-12-28T10:56:16.012Z,22.99
2023-12-28T10:57:15.947Z,21.12
2023-12-28T10:58:15.942Z,20.26
2023-12-28T10:59:15.941Z,19.26
2023-12-28T11:00:15.935Z,18.31
2023-12-28T11:01:16.032Z,18.27
2023-12-28T11:02:15.959Z,19.45
2023-12-28T11:03:16.013Z,19.53
2023-12-28T11:04:16.047Z,20.23
2023-12-28T11:05:16.006Z,20.72
2023-12-28T11:06:15.945Z,20.34
2023-12-28T11:07:15.942Z,19.07
2023-12-28T11:08:15.946Z,19.17
2023-12-28T11:09:15.938Z,19.34
2023-12-28T11:10:15.961Z,19.63
2023-12-28T11:11:15.942Z,19.03
2023-12-28T11:12:15.957Z,18.25
2023-12-28T11:13:16.018Z,18.52
2023-12-28T11:14:15.970Z,18.98
2023-12-28T11:15:15.967Z,18.83
2023-12-28T11:16:15.999Z,18.41
2023-12-28T11:17:16.124Z,17.94
2023-12-28T11:18:16.042Z,17.93
2023-12-28T11:19:16.083Z,18.64
2023-12-28T11:20:16.026Z,18.73
2023-12-28T11:21:16.003Z,18.77
2023-12-28T11:22:15.993Z,18.84
2023-12-28T11:23:15.990Z,18.37
2023-12-28T11:24:16.005Z,17.34
2023-12-28T11:25:16.000Z,16.72
2023-12-28T11:26:16.002Z,15.74
2023-12-28T11:27:16.024Z,15.05
2023-12-28T11:28:16.006Z,15.39
2023-12-28T11:29:16.019Z,15.41
2023-12-28T11:30:16.101Z,15.50
2023-12-28T11:31:16.112Z,15.25
2023-12-28T11:32:16.040Z,15.94
2023-12-28T11:33:16.090Z,15.28
2023-12-28T11:34:16.032Z,15.55
2023-12-28T11:35:16.217Z,16.36
2023-12-28T11:36:16.007Z,16.96
2023-12-28T11:37:16.010Z,17.50
2023-12-28T11:38:16.017Z,17.87
2023-12-28T11:39:16.022Z,18.01
2023-12-28T11:40:16.020Z,17.06
2023-12-28T11:41:16.040Z,16.99
2023-12-28T11:42:16.065Z,16.35
2023-12-28T11:43:16.049Z,17.06
2023-12-28T11:44:16.032Z,16.37
2023-12-28T11:45:16.046Z,16.34
2023-12-28T11:46:16.024Z,16.21
2023-12-28T11:47:16.040Z,16.07
2023-12-28T11:48:16.196Z,16.50
2023-12-28T11:49:16.175Z,16.93
2023-12-28T11:50:16.056Z,17.12
2023-12-28T11:51:16.027Z,18.55
2023-12-28T11:52:16.056Z,17.96
2023-12-28T11:53:16.104Z,16.65
2023-12-28T11:54:16.131Z,15.36
2023-12-28T11:55:16.173Z,15.86
2023-12-28T11:56:16.247Z,16.74
2023-12-28T11:57:16.274Z,17.30
2023-12-28T11:58:16.307Z,18.65
2023-12-28T11:59:16.381Z,19.87
2023-12-28T12:00:16.439Z,19.73
2023-12-28T12:01:16.505Z,20.73
2023-12-28T12:02:16.487Z,21.79
2023-12-28T12:03:16.605Z,22.12
2023-12-28T12:04:16.718Z,22.97
2023-12-28T12:05:16.645Z,23.55
2023-12-28T12:06:16.867Z,24.67
2023-12-28T12:07:16.814Z,25.44
2023-12-28T12:08:16.738Z,26.15
2023-12-28T12:09:16.799Z,26.92
2023-12-28T12:10:16.835Z,27.06
2023-12-28T12:11:16.830Z,27.94
2023-12-28T12:12:16.871Z,29.35
2023-12-28T12:13:16.950Z,29.58
2023-12-28T12:14:16.958Z,29.65
2023-12-28T12:15:17.038Z,30.32
2023-12-28T12:16:17.019Z,30.19
2023-12-28T12:17:17.040Z,29.87
2023-12-28T12:18:17.144Z,29.15
2023-12-28T12:19:17.205Z,28.99
2023-12-28T12:20:17.175Z,29.07
2023-12-28T12:21:17.209Z,28.83
2023-12-28T12:22:17.278Z,28.92
2023-12-28T12:23:17.323Z,28.12
2023-12-28T12:24:17.358Z,27.49
2023-12-28T12:25:17.386Z,27.20
2023-12-28T12:26:17.396Z,26.11
2023-12-28T12:27:17.447Z,25.93
2023-12-28T12:28:17.546Z,25.84
2023-12-28T12:29:19.801Z,26.03
2023-12-28T12:30:17.669Z,25.98
2023-12-28T12:31:17.609Z,26.03
2023-12-28T12:32:17.510Z,25.79
2023-12-28T12:33:17.563Z,25.66
2023-12-28T12:34:17.717Z,24.45
2023-12-28T12:35:17.584Z,24.62
2023-12-28T12:36:17.521Z,25.06
2023-12-28T12:37:17.538Z,24.21
2023-12-28T12:38:17.519Z,24.57
2023-12-28T12:39:17.525Z,25.62
2023-12-28T12:40:17.580Z,25.74
2023-12-28T12:41:17.579Z,26.84
2023-12-28T12:42:17.541Z,27.46
2023-12-28T12:43:17.617Z,27.59
2023-12-28T12:44:17.543Z,28.60
2023-12-28T12:45:17.616Z,29.79
2023-12-28T12:46:17.622Z,31.44
2023-12-28T12:47:17.545Z,30.80
2023-12-28T12:48:17.843Z,31.53
2023-12-28T12:49:17.887Z,31.09
2023-12-28T12:50:17.534Z,29.58
2023-12-28T12:51:17.557Z,29.32
2023-12-28T12:52:17.581Z,29.58
2023-12-28T12:53:17.530Z,29.74
2023-12-28T12:54:17.550Z,28.62